sensor_id;sensor_type;location;lat;lon;timestamp;temperature;humidity
70550;DHT22;58101;48.658;2.328;2023-11-18T00:01:20;9.30;99.90
70550;DHT22;58101;48.658;2.328;2023-11-18T00:03:46;9.30;99.90
70550;DHT22;58101;48.658;2.328;2023-11-18T00:06:11;9.30;99.90
70550;DHT22;58101;48.658;2.328;2023-11-18T00:08:38;9.30;99.90
70550;DHT22;58101;48.658;2.328;2023-11-18T00:11:04;9.30;99.90
70550;DHT22;58101;48.658;2.328;2023-11-18T00:13:29;9.20;99.90
70550;DHT22;58101;48.658;2.328;2023-11-18T00:15:55;9.40;99.90
70550;DHT22;58101;48.658;2.328;2023-11-18T00:18:21;9.20;99.90
70550;DHT22;58101;48.658;2.328;2023-11-18T00:20:47;9.30;99.90
70550;DHT22;58101;48.658;2.328;2023-11-18T00:23:13;9.40;99.90
70550;DHT22;58101;48.658;2.328;2023-11-18T00:25:39;9.40;99.90
70550;DHT22;58101;48.658;2.328;2023-11-18T00:28:06;9.40;99.90
70550;DHT22;58101;48.658;2.328;2023-11-18T00:30:33;9.40;99.90
70550;DHT22;58101;48.658;2.328;2023-11-18T00:32:59;9.40;99.90
70550;DHT22;58101;48.658;2.328;2023-11-18T00:35:24;9.40;99.90
70550;DHT22;58101;48.658;2.328;2023-11-18T00:37:50;9.40;99.90
70550;DHT22;58101;48.658;2.328;2023-11-18T00:40:16;9.40;99.90
70550;DHT22;58101;48.658;2.328;2023-11-18T00:42:44;9.40;99.90
70550;DHT22;58101;48.658;2.328;2023-11-18T00:45:10;9.50;99.90
70550;DHT22;58101;48.658;2.328;2023-11-18T00:47:38;9.50;99.90
70550;DHT22;58101;48.658;2.328;2023-11-18T00:50:04;9.50;99.90
70550;DHT22;58101;48.658;2.328;2023-11-18T00:52:34;9.50;99.90
70550;DHT22;58101;48.658;2.328;2023-11-18T00:54:59;9.50;99.90
70550;DHT22;58101;48.658;2.328;2023-11-18T00:57:25;9.50;99.90
70550;DHT22;58101;48.658;2.328;2023-11-18T00:59:51;9.50;99.90
70550;DHT22;58101;48.658;2.328;2023-11-18T01:02:17;9.50;99.90
70550;DHT22;58101;48.658;2.328;2023-11-18T01:04:46;9.50;99.90
70550;DHT22;58101;48.658;2.328;2023-11-18T01:07:12;9.50;99.90
70550;DHT22;58101;48.658;2.328;2023-11-18T01:09:38;9.50;99.90
70550;DHT22;58101;48.658;2.328;2023-11-18T01:12:05;9.50;99.90
70550;DHT22;58101;48.658;2.328;2023-11-18T01:14:31;9.50;99.90
70550;DHT22;58101;48.658;2.328;2023-11-18T01:16:57;9.40;99.90
70550;DHT22;58101;48.658;2.328;2023-11-18T01:19:22;9.60;99.90
70550;DHT22;58101;48.658;2.328;2023-11-18T01:21:49;9.50;99.90
70550;DHT22;58101;48.658;2.328;2023-11-18T01:24:15;9.50;99.90
70550;DHT22;58101;48.658;2.328;2023-11-18T01:26:41;9.50;99.90
70550;DHT22;58101;48.658;2.328;2023-11-18T01:29:07;9.50;99.90
70550;DHT22;58101;48.658;2.328;2023-11-18T01:31:33;9.50;99.90
70550;DHT22;58101;48.658;2.328;2023-11-18T01:33:58;9.50;99.90
70550;DHT22;58101;48.658;2.328;2023-11-18T01:36:25;9.50;99.90
70550;DHT22;58101;48.658;2.328;2023-11-18T01:38:50;9.40;99.90
70550;DHT22;58101;48.658;2.328;2023-11-18T01:41:16;9.60;99.90
70550;DHT22;58101;48.658;2.328;2023-11-18T01:43:45;9.50;99.90
70550;DHT22;58101;48.658;2.328;2023-11-18T01:46:12;9.50;99.90
70550;DHT22;58101;48.658;2.328;2023-11-18T01:48:39;9.50;99.90
70550;DHT22;58101;48.658;2.328;2023-11-18T01:51:05;9.40;99.90
70550;DHT22;58101;48.658;2.328;2023-11-18T01:53:34;9.40;99.90
70550;DHT22;58101;48.658;2.328;2023-11-18T01:56:01;9.40;99.90
70550;DHT22;58101;48.658;2.328;2023-11-18T01:58:28;9.40;99.90
70550;DHT22;58101;48.658;2.328;2023-11-18T02:00:56;9.50;99.90
70550;DHT22;58101;48.658;2.328;2023-11-18T02:03:22;9.50;99.90
70550;DHT22;58101;48.658;2.328;2023-11-18T02:05:48;9.40;99.90
70550;DHT22;58101;48.658;2.328;2023-11-18T02:08:13;9.40;99.90
70550;DHT22;58101;48.658;2.328;2023-11-18T02:13:43;9.40;99.90
70550;DHT22;58101;48.658;2.328;2023-11-18T02:16:12;9.40;99.90
70550;DHT22;58101;48.658;2.328;2023-11-18T02:18:38;9.40;99.90
70550;DHT22;58101;48.658;2.328;2023-11-18T02:21:07;9.40;99.90
70550;DHT22;58101;48.658;2.328;2023-11-18T02:23:35;9.40;99.90
70550;DHT22;58101;48.658;2.328;2023-11-18T02:26:01;9.40;99.90
70550;DHT22;58101;48.658;2.328;2023-11-18T02:28:27;9.40;99.90
70550;DHT22;58101;48.658;2.328;2023-11-18T02:30:57;9.40;99.90
70550;DHT22;58101;48.658;2.328;2023-11-18T02:33:35;9.40;99.90
70550;DHT22;58101;48.658;2.328;2023-11-18T02:36:32;9.40;99.90
70550;DHT22;58101;48.658;2.328;2023-11-18T02:39:05;9.40;99.90
70550;DHT22;58101;48.658;2.328;2023-11-18T02:41:38;9.40;99.90
70550;DHT22;58101;48.658;2.328;2023-11-18T02:44:05;9.40;99.90
70550;DHT22;58101;48.658;2.328;2023-11-18T02:46:36;9.40;99.90
70550;DHT22;58101;48.658;2.328;2023-11-18T02:49:03;9.40;99.90
70550;DHT22;58101;48.658;2.328;2023-11-18T02:51:29;9.40;99.90
70550;DHT22;58101;48.658;2.328;2023-11-18T02:54:07;9.40;99.90
70550;DHT22;58101;48.658;2.328;2023-11-18T02:56:36;9.50;99.90
70550;DHT22;58101;48.658;2.328;2023-11-18T02:59:02;9.50;99.90
70550;DHT22;58101;48.658;2.328;2023-11-18T03:01:31;9.50;99.90
70550;DHT22;58101;48.658;2.328;2023-11-18T03:03:56;9.60;99.90
70550;DHT22;58101;48.658;2.328;2023-11-18T03:06:22;9.50;99.90
70550;DHT22;58101;48.658;2.328;2023-11-18T03:08:48;9.50;99.90
70550;DHT22;58101;48.658;2.328;2023-11-18T03:11:14;9.50;99.90
70550;DHT22;58101;48.658;2.328;2023-11-18T03:13:39;9.50;99.90
70550;DHT22;58101;48.658;2.328;2023-11-18T03:16:08;9.60;99.90
70550;DHT22;58101;48.658;2.328;2023-11-18T03:18:42;9.60;99.90
70550;DHT22;58101;48.658;2.328;2023-11-18T03:21:14;9.50;99.90
70550;DHT22;58101;48.658;2.328;2023-11-18T03:23:40;9.50;99.90
70550;DHT22;58101;48.658;2.328;2023-11-18T03:26:10;9.50;99.90
70550;DHT22;58101;48.658;2.328;2023-11-18T03:28:36;9.50;99.90
70550;DHT22;58101;48.658;2.328;2023-11-18T03:31:05;9.50;99.90
70550;DHT22;58101;48.658;2.328;2023-11-18T03:33:31;9.50;99.90
70550;DHT22;58101;48.658;2.328;2023-11-18T03:35:57;9.50;99.90
70550;DHT22;58101;48.658;2.328;2023-11-18T03:38:23;9.40;99.90
70550;DHT22;58101;48.658;2.328;2023-11-18T03:40:49;9.40;99.90
70550;DHT22;58101;48.658;2.328;2023-11-18T03:43:15;9.40;99.90
70550;DHT22;58101;48.658;2.328;2023-11-18T03:45:41;9.40;99.90
70550;DHT22;58101;48.658;2.328;2023-11-18T03:48:07;9.40;99.90
70550;DHT22;58101;48.658;2.328;2023-11-18T03:50:33;9.50;99.90
70550;DHT22;58101;48.658;2.328;2023-11-18T03:52:59;9.40;99.90
70550;DHT22;58101;48.658;2.328;2023-11-18T03:55:25;9.40;99.90
70550;DHT22;58101;48.658;2.328;2023-11-18T03:57:54;9.30;99.90
70550;DHT22;58101;48.658;2.328;2023-11-18T04:00:21;9.20;99.90
70550;DHT22;58101;48.658;2.328;2023-11-18T04:02:47;9.30;99.90
70550;DHT22;58101;48.658;2.328;2023-11-18T04:05:13;9.50;99.90
70550;DHT22;58101;48.658;2.328;2023-11-18T04:07:39;9.30;99.90
70550;DHT22;58101;48.658;2.328;2023-11-18T04:10:08;9.30;99.90
70550;DHT22;58101;48.658;2.328;2023-11-18T04:12:36;9.30;99.90
70550;DHT22;58101;48.658;2.328;2023-11-18T04:15:02;9.30;99.90
70550;DHT22;58101;48.658;2.328;2023-11-18T04:17:30;9.30;99.90
70550;DHT22;58101;48.658;2.328;2023-11-18T04:19:56;9.30;99.90
70550;DHT22;58101;48.658;2.328;2023-11-18T04:22:22;9.30;99.90
70550;DHT22;58101;48.658;2.328;2023-11-18T04:24:48;9.30;99.90
70550;DHT22;58101;48.658;2.328;2023-11-18T04:27:14;9.30;99.90
70550;DHT22;58101;48.658;2.328;2023-11-18T04:29:39;9.30;99.90
70550;DHT22;58101;48.658;2.328;2023-11-18T04:32:06;9.30;99.90
70550;DHT22;58101;48.658;2.328;2023-11-18T04:34:38;9.30;99.90
70550;DHT22;58101;48.658;2.328;2023-11-18T04:37:04;9.30;99.90
70550;DHT22;58101;48.658;2.328;2023-11-18T04:39:32;9.30;99.90
70550;DHT22;58101;48.658;2.328;2023-11-18T04:41:57;9.20;99.90
70550;DHT22;58101;48.658;2.328;2023-11-18T04:44:23;9.30;99.90
70550;DHT22;58101;48.658;2.328;2023-11-18T04:46:49;9.30;99.90
70550;DHT22;58101;48.658;2.328;2023-11-18T04:49:15;9.30;99.90
70550;DHT22;58101;48.658;2.328;2023-11-18T04:51:41;9.30;99.90
70550;DHT22;58101;48.658;2.328;2023-11-18T04:54:07;9.30;99.90
70550;DHT22;58101;48.658;2.328;2023-11-18T04:56:34;9.30;99.90
70550;DHT22;58101;48.658;2.328;2023-11-18T05:01:10;9.30;99.90
70550;DHT22;58101;48.658;2.328;2023-11-18T05:03:38;9.40;99.90
70550;DHT22;58101;48.658;2.328;2023-11-18T05:06:04;9.40;99.90
70550;DHT22;58101;48.658;2.328;2023-11-18T05:08:30;9.40;99.90
70550;DHT22;58101;48.658;2.328;2023-11-18T05:10:56;9.40;99.90
70550;DHT22;58101;48.658;2.328;2023-11-18T05:13:23;9.40;99.90
70550;DHT22;58101;48.658;2.328;2023-11-18T05:15:48;9.40;99.90
70550;DHT22;58101;48.658;2.328;2023-11-18T05:18:15;9.30;99.90
70550;DHT22;58101;48.658;2.328;2023-11-18T05:20:41;9.30;99.90
70550;DHT22;58101;48.658;2.328;2023-11-18T05:23:07;9.30;99.90
70550;DHT22;58101;48.658;2.328;2023-11-18T05:25:36;9.30;99.90
70550;DHT22;58101;48.658;2.328;2023-11-18T05:28:02;9.30;99.90
70550;DHT22;58101;48.658;2.328;2023-11-18T05:30:28;9.20;99.90
70550;DHT22;58101;48.658;2.328;2023-11-18T05:32:56;9.20;99.90
70550;DHT22;58101;48.658;2.328;2023-11-18T05:35:24;9.20;99.90
70550;DHT22;58101;48.658;2.328;2023-11-18T05:37:54;9.20;99.90
70550;DHT22;58101;48.658;2.328;2023-11-18T05:40:19;9.20;99.90
70550;DHT22;58101;48.658;2.328;2023-11-18T05:42:46;9.20;99.90
70550;DHT22;58101;48.658;2.328;2023-11-18T05:45:14;9.30;99.90
70550;DHT22;58101;48.658;2.328;2023-11-18T05:47:54;9.20;99.90
70550;DHT22;58101;48.658;2.328;2023-11-18T05:50:20;9.20;99.90
70550;DHT22;58101;48.658;2.328;2023-11-18T05:52:46;9.20;99.90
70550;DHT22;58101;48.658;2.328;2023-11-18T05:55:11;9.20;99.90
70550;DHT22;58101;48.658;2.328;2023-11-18T05:57:37;9.20;99.90
70550;DHT22;58101;48.658;2.328;2023-11-18T06:00:03;9.10;99.90
70550;DHT22;58101;48.658;2.328;2023-11-18T06:02:30;9.10;99.90
70550;DHT22;58101;48.658;2.328;2023-11-18T06:04:56;9.10;99.90
70550;DHT22;58101;48.658;2.328;2023-11-18T06:07:22;9.10;99.90
70550;DHT22;58101;48.658;2.328;2023-11-18T06:09:48;9.10;99.90
70550;DHT22;58101;48.658;2.328;2023-11-18T06:12:14;9.10;99.90
70550;DHT22;58101;48.658;2.328;2023-11-18T06:14:43;9.10;99.90
70550;DHT22;58101;48.658;2.328;2023-11-18T06:17:10;9.10;99.90
70550;DHT22;58101;48.658;2.328;2023-11-18T06:19:38;9.10;99.90
70550;DHT22;58101;48.658;2.328;2023-11-18T06:22:05;9.20;99.90
70550;DHT22;58101;48.658;2.328;2023-11-18T06:24:31;9.10;99.90
70550;DHT22;58101;48.658;2.328;2023-11-18T06:26:56;9.20;99.90
70550;DHT22;58101;48.658;2.328;2023-11-18T06:29:23;9.00;99.90
70550;DHT22;58101;48.658;2.328;2023-11-18T06:31:49;9.00;99.90
70550;DHT22;58101;48.658;2.328;2023-11-18T06:34:14;9.20;99.90
70550;DHT22;58101;48.658;2.328;2023-11-18T06:36:40;9.00;99.90
70550;DHT22;58101;48.658;2.328;2023-11-18T06:39:06;9.00;99.90
70550;DHT22;58101;48.658;2.328;2023-11-18T06:41:32;9.00;99.90
70550;DHT22;58101;48.658;2.328;2023-11-18T06:44:03;9.00;99.90
70550;DHT22;58101;48.658;2.328;2023-11-18T06:46:38;9.00;99.90
70550;DHT22;58101;48.658;2.328;2023-11-18T06:49:05;9.00;99.90
70550;DHT22;58101;48.658;2.328;2023-11-18T06:51:33;9.00;99.90
70550;DHT22;58101;48.658;2.328;2023-11-18T06:54:04;9.00;99.90
70550;DHT22;58101;48.658;2.328;2023-11-18T06:56:35;9.00;99.90
70550;DHT22;58101;48.658;2.328;2023-11-18T06:59:06;9.00;99.90
70550;DHT22;58101;48.658;2.328;2023-11-18T07:01:33;9.20;99.90
70550;DHT22;58101;48.658;2.328;2023-11-18T07:03:58;9.10;99.90
70550;DHT22;58101;48.658;2.328;2023-11-18T07:06:24;9.00;99.90
70550;DHT22;58101;48.658;2.328;2023-11-18T07:08:52;9.10;99.90
70550;DHT22;58101;48.658;2.328;2023-11-18T07:11:19;9.10;99.90
70550;DHT22;58101;48.658;2.328;2023-11-18T07:13:48;9.10;99.90
70550;DHT22;58101;48.658;2.328;2023-11-18T07:16:15;9.00;99.90
70550;DHT22;58101;48.658;2.328;2023-11-18T07:18:41;9.00;99.90
70550;DHT22;58101;48.658;2.328;2023-11-18T07:21:09;9.00;99.90
70550;DHT22;58101;48.658;2.328;2023-11-18T07:23:35;9.10;99.90
70550;DHT22;58101;48.658;2.328;2023-11-18T07:26:01;9.00;99.90
70550;DHT22;58101;48.658;2.328;2023-11-18T07:28:29;9.10;99.90
70550;DHT22;58101;48.658;2.328;2023-11-18T07:30:55;9.00;99.90
70550;DHT22;58101;48.658;2.328;2023-11-18T07:33:20;9.00;99.90
70550;DHT22;58101;48.658;2.328;2023-11-18T07:35:47;9.00;99.90
70550;DHT22;58101;48.658;2.328;2023-11-18T07:38:13;9.10;99.90
70550;DHT22;58101;48.658;2.328;2023-11-18T07:40:39;9.10;99.90
70550;DHT22;58101;48.658;2.328;2023-11-18T07:43:11;9.00;99.90
70550;DHT22;58101;48.658;2.328;2023-11-18T07:45:38;9.10;99.90
70550;DHT22;58101;48.658;2.328;2023-11-18T07:48:05;9.10;99.90
70550;DHT22;58101;48.658;2.328;2023-11-18T07:50:35;9.10;99.90
70550;DHT22;58101;48.658;2.328;2023-11-18T07:53:01;9.20;99.90
70550;DHT22;58101;48.658;2.328;2023-11-18T07:55:28;9.20;99.90
70550;DHT22;58101;48.658;2.328;2023-11-18T07:57:54;9.10;99.90
70550;DHT22;58101;48.658;2.328;2023-11-18T08:00:20;9.20;99.90
70550;DHT22;58101;48.658;2.328;2023-11-18T08:02:46;9.20;99.90
70550;DHT22;58101;48.658;2.328;2023-11-18T08:05:12;9.20;99.90
70550;DHT22;58101;48.658;2.328;2023-11-18T08:07:43;9.20;99.90
70550;DHT22;58101;48.658;2.328;2023-11-18T08:10:10;9.20;99.90
70550;DHT22;58101;48.658;2.328;2023-11-18T08:12:41;9.20;99.90
70550;DHT22;58101;48.658;2.328;2023-11-18T08:15:07;9.20;99.90
70550;DHT22;58101;48.658;2.328;2023-11-18T08:17:34;9.20;99.90
70550;DHT22;58101;48.658;2.328;2023-11-18T08:20:00;9.20;99.90
70550;DHT22;58101;48.658;2.328;2023-11-18T08:22:26;9.20;99.90
70550;DHT22;58101;48.658;2.328;2023-11-18T08:24:51;9.20;99.90
70550;DHT22;58101;48.658;2.328;2023-11-18T08:27:17;9.20;99.90
70550;DHT22;58101;48.658;2.328;2023-11-18T08:29:43;9.40;99.90
70550;DHT22;58101;48.658;2.328;2023-11-18T08:32:08;9.20;99.90
70550;DHT22;58101;48.658;2.328;2023-11-18T08:34:38;9.40;99.90
70550;DHT22;58101;48.658;2.328;2023-11-18T08:37:06;9.30;99.90
70550;DHT22;58101;48.658;2.328;2023-11-18T08:39:32;9.30;99.90
70550;DHT22;58101;48.658;2.328;2023-11-18T08:41:58;9.30;99.90
70550;DHT22;58101;48.658;2.328;2023-11-18T08:44:24;9.30;99.90
70550;DHT22;58101;48.658;2.328;2023-11-18T08:46:52;9.40;99.90
70550;DHT22;58101;48.658;2.328;2023-11-18T08:49:20;9.30;99.90
70550;DHT22;58101;48.658;2.328;2023-11-18T08:51:50;9.40;99.90
70550;DHT22;58101;48.658;2.328;2023-11-18T08:54:22;9.40;99.90
70550;DHT22;58101;48.658;2.328;2023-11-18T08:56:53;9.50;99.90
70550;DHT22;58101;48.658;2.328;2023-11-18T08:59:23;9.40;99.90
70550;DHT22;58101;48.658;2.328;2023-11-18T09:01:53;9.50;99.90
70550;DHT22;58101;48.658;2.328;2023-11-18T09:04:25;9.50;99.90
70550;DHT22;58101;48.658;2.328;2023-11-18T09:06:51;9.40;99.90
70550;DHT22;58101;48.658;2.328;2023-11-18T09:09:23;9.50;99.90
70550;DHT22;58101;48.658;2.328;2023-11-18T09:11:55;9.50;99.90
70550;DHT22;58101;48.658;2.328;2023-11-18T09:14:25;9.50;99.90
70550;DHT22;58101;48.658;2.328;2023-11-18T09:16:52;9.60;99.90
70550;DHT22;58101;48.658;2.328;2023-11-18T09:19:20;9.60;99.90
70550;DHT22;58101;48.658;2.328;2023-11-18T09:21:47;9.60;99.90
70550;DHT22;58101;48.658;2.328;2023-11-18T09:24:14;9.60;99.90
70550;DHT22;58101;48.658;2.328;2023-11-18T09:26:43;9.60;99.90
70550;DHT22;58101;48.658;2.328;2023-11-18T09:29:16;9.70;99.90
70550;DHT22;58101;48.658;2.328;2023-11-18T09:31:47;9.70;99.90
70550;DHT22;58101;48.658;2.328;2023-11-18T09:34:14;9.70;99.90
70550;DHT22;58101;48.658;2.328;2023-11-18T09:36:43;9.70;99.90
70550;DHT22;58101;48.658;2.328;2023-11-18T09:39:10;9.70;99.90
70550;DHT22;58101;48.658;2.328;2023-11-18T09:41:49;9.70;99.90
70550;DHT22;58101;48.658;2.328;2023-11-18T09:44:17;9.80;99.90
70550;DHT22;58101;48.658;2.328;2023-11-18T09:46:45;9.80;99.90
70550;DHT22;58101;48.658;2.328;2023-11-18T09:49:26;9.80;99.90
70550;DHT22;58101;48.658;2.328;2023-11-18T09:51:59;9.90;99.90
70550;DHT22;58101;48.658;2.328;2023-11-18T10:00:22;10.00;99.90
70550;DHT22;58101;48.658;2.328;2023-11-18T10:02:58;9.90;99.90
70550;DHT22;58101;48.658;2.328;2023-11-18T10:05:26;10.10;99.90
70550;DHT22;58101;48.658;2.328;2023-11-18T10:07:52;10.10;99.90
70550;DHT22;58101;48.658;2.328;2023-11-18T10:10:19;10.10;99.90
70550;DHT22;58101;48.658;2.328;2023-11-18T10:12:52;10.10;99.90
70550;DHT22;58101;48.658;2.328;2023-11-18T10:15:21;10.20;99.90
70550;DHT22;58101;48.658;2.328;2023-11-18T10:17:52;10.20;99.90
70550;DHT22;58101;48.658;2.328;2023-11-18T10:20:25;10.30;99.90
70550;DHT22;58101;48.658;2.328;2023-11-18T10:23:10;10.30;99.90
70550;DHT22;58101;48.658;2.328;2023-11-18T10:25:49;10.30;99.90
70550;DHT22;58101;48.658;2.328;2023-11-18T10:28:44;10.30;99.90
70550;DHT22;58101;48.658;2.328;2023-11-18T10:31:18;10.40;99.90
70550;DHT22;58101;48.658;2.328;2023-11-18T10:33:44;10.40;99.90
70550;DHT22;58101;48.658;2.328;2023-11-18T10:36:22;10.40;99.90
70550;DHT22;58101;48.658;2.328;2023-11-18T10:38:49;10.40;99.90
70550;DHT22;58101;48.658;2.328;2023-11-18T10:41:21;10.30;99.90
70550;DHT22;58101;48.658;2.328;2023-11-18T10:43:47;10.40;99.90
70550;DHT22;58101;48.658;2.328;2023-11-18T10:46:16;10.40;99.90
70550;DHT22;58101;48.658;2.328;2023-11-18T10:48:48;10.40;99.90
70550;DHT22;58101;48.658;2.328;2023-11-18T10:51:16;10.40;99.90
70550;DHT22;58101;48.658;2.328;2023-11-18T10:53:47;10.40;99.90
70550;DHT22;58101;48.658;2.328;2023-11-18T10:56:28;10.40;99.90
70550;DHT22;58101;48.658;2.328;2023-11-18T10:59:04;10.40;99.90
70550;DHT22;58101;48.658;2.328;2023-11-18T11:01:35;10.50;99.90
70550;DHT22;58101;48.658;2.328;2023-11-18T11:04:18;10.40;99.90
70550;DHT22;58101;48.658;2.328;2023-11-18T11:06:48;10.50;99.90
70550;DHT22;58101;48.658;2.328;2023-11-18T11:09:23;10.50;99.90
70550;DHT22;58101;48.658;2.328;2023-11-18T11:12:07;10.60;99.90
70550;DHT22;58101;48.658;2.328;2023-11-18T11:14:46;10.60;99.90
70550;DHT22;58101;48.658;2.328;2023-11-18T11:17:17;10.70;99.90
70550;DHT22;58101;48.658;2.328;2023-11-18T11:20:05;10.70;99.90
70550;DHT22;58101;48.658;2.328;2023-11-18T11:23:14;10.70;99.90
70550;DHT22;58101;48.658;2.328;2023-11-18T11:28:42;10.80;99.90
70550;DHT22;58101;48.658;2.328;2023-11-18T11:31:23;10.90;99.90
70550;DHT22;58101;48.658;2.328;2023-11-18T11:33:57;10.90;99.90
70550;DHT22;58101;48.658;2.328;2023-11-18T11:36:35;10.90;99.90
70550;DHT22;58101;48.658;2.328;2023-11-18T11:39:01;10.90;99.90
70550;DHT22;58101;48.658;2.328;2023-11-18T11:41:29;10.90;99.90
70550;DHT22;58101;48.658;2.328;2023-11-18T11:43:59;11.00;99.90
70550;DHT22;58101;48.658;2.328;2023-11-18T11:46:26;11.00;99.90
70550;DHT22;58101;48.658;2.328;2023-11-18T11:49:00;11.00;99.90
70550;DHT22;58101;48.658;2.328;2023-11-18T11:51:37;11.00;99.90
70550;DHT22;58101;48.658;2.328;2023-11-18T11:54:13;11.00;99.90
70550;DHT22;58101;48.658;2.328;2023-11-18T11:56:44;11.00;99.90
70550;DHT22;58101;48.658;2.328;2023-11-18T11:59:34;11.00;99.90
70550;DHT22;58101;48.658;2.328;2023-11-18T12:02:02;11.10;99.90
70550;DHT22;58101;48.658;2.328;2023-11-18T12:04:33;11.10;99.90
70550;DHT22;58101;48.658;2.328;2023-11-18T12:07:06;11.00;99.90
70550;DHT22;58101;48.658;2.328;2023-11-18T12:09:35;11.10;99.90
70550;DHT22;58101;48.658;2.328;2023-11-18T12:12:05;11.10;99.90
70550;DHT22;58101;48.658;2.328;2023-11-18T12:14:50;11.20;99.90
70550;DHT22;58101;48.658;2.328;2023-11-18T12:17:17;11.20;99.90
70550;DHT22;58101;48.658;2.328;2023-11-18T12:19:54;11.20;99.90
70550;DHT22;58101;48.658;2.328;2023-11-18T12:23:03;11.40;99.90
70550;DHT22;58101;48.658;2.328;2023-11-18T12:25:40;11.20;99.90
70550;DHT22;58101;48.658;2.328;2023-11-18T12:28:15;11.20;99.90
70550;DHT22;58101;48.658;2.328;2023-11-18T12:30:43;11.30;99.90
70550;DHT22;58101;48.658;2.328;2023-11-18T12:33:19;11.30;99.90
70550;DHT22;58101;48.658;2.328;2023-11-18T12:41:38;11.30;99.90
70550;DHT22;58101;48.658;2.328;2023-11-18T12:46:59;11.30;99.90
70550;DHT22;58101;48.658;2.328;2023-11-18T12:49:41;11.40;99.90
70550;DHT22;58101;48.658;2.328;2023-11-18T12:52:08;11.40;99.90
70550;DHT22;58101;48.658;2.328;2023-11-18T12:54:34;11.40;99.90
70550;DHT22;58101;48.658;2.328;2023-11-18T12:57:03;11.40;99.90
70550;DHT22;58101;48.658;2.328;2023-11-18T12:59:33;11.40;99.90
70550;DHT22;58101;48.658;2.328;2023-11-18T13:01:58;11.40;99.90
70550;DHT22;58101;48.658;2.328;2023-11-18T13:04:27;11.40;99.90
70550;DHT22;58101;48.658;2.328;2023-11-18T13:06:53;11.50;99.90
70550;DHT22;58101;48.658;2.328;2023-11-18T13:09:21;11.50;99.90
70550;DHT22;58101;48.658;2.328;2023-11-18T13:11:57;11.50;99.90
70550;DHT22;58101;48.658;2.328;2023-11-18T13:14:27;11.50;99.90
70550;DHT22;58101;48.658;2.328;2023-11-18T13:16:54;11.30;99.90
70550;DHT22;58101;48.658;2.328;2023-11-18T13:19:26;11.50;99.90
70550;DHT22;58101;48.658;2.328;2023-11-18T13:21:59;11.40;99.90
70550;DHT22;58101;48.658;2.328;2023-11-18T13:24:26;11.40;99.90
70550;DHT22;58101;48.658;2.328;2023-11-18T13:26:55;11.40;99.90
70550;DHT22;58101;48.658;2.328;2023-11-18T13:29:23;11.40;99.90
70550;DHT22;58101;48.658;2.328;2023-11-18T13:31:50;11.40;99.90
70550;DHT22;58101;48.658;2.328;2023-11-18T13:34:20;11.40;99.90
70550;DHT22;58101;48.658;2.328;2023-11-18T13:36:49;11.40;99.90
70550;DHT22;58101;48.658;2.328;2023-11-18T13:39:19;11.50;99.90
70550;DHT22;58101;48.658;2.328;2023-11-18T13:41:49;11.50;99.90
70550;DHT22;58101;48.658;2.328;2023-11-18T13:44:34;11.50;99.90
70550;DHT22;58101;48.658;2.328;2023-11-18T13:47:01;11.50;99.90
70550;DHT22;58101;48.658;2.328;2023-11-18T13:49:31;11.50;99.90
70550;DHT22;58101;48.658;2.328;2023-11-18T13:51:57;11.60;99.90
70550;DHT22;58101;48.658;2.328;2023-11-18T13:54:24;11.60;99.90
70550;DHT22;58101;48.658;2.328;2023-11-18T13:56:51;11.70;99.90
70550;DHT22;58101;48.658;2.328;2023-11-18T13:59:18;11.60;99.90
70550;DHT22;58101;48.658;2.328;2023-11-18T14:01:44;11.60;99.90
70550;DHT22;58101;48.658;2.328;2023-11-18T14:04:11;11.60;99.90
70550;DHT22;58101;48.658;2.328;2023-11-18T14:06:37;11.60;99.90
70550;DHT22;58101;48.658;2.328;2023-11-18T14:09:05;11.60;99.90
70550;DHT22;58101;48.658;2.328;2023-11-18T14:11:31;11.60;99.90
70550;DHT22;58101;48.658;2.328;2023-11-18T14:13:57;11.60;99.90
70550;DHT22;58101;48.658;2.328;2023-11-18T14:16:24;11.60;99.90
70550;DHT22;58101;48.658;2.328;2023-11-18T14:18:51;11.60;99.90
70550;DHT22;58101;48.658;2.328;2023-11-18T14:21:17;11.70;99.90
70550;DHT22;58101;48.658;2.328;2023-11-18T14:23:43;11.70;99.90
70550;DHT22;58101;48.658;2.328;2023-11-18T14:26:08;11.60;99.90
70550;DHT22;58101;48.658;2.328;2023-11-18T14:28:34;11.70;99.90
70550;DHT22;58101;48.658;2.328;2023-11-18T14:31:01;11.70;99.90
70550;DHT22;58101;48.658;2.328;2023-11-18T14:33:30;11.90;99.90
70550;DHT22;58101;48.658;2.328;2023-11-18T14:36:01;11.80;99.90
70550;DHT22;58101;48.658;2.328;2023-11-18T14:38:27;11.70;99.90
70550;DHT22;58101;48.658;2.328;2023-11-18T14:40:52;11.80;99.90
70550;DHT22;58101;48.658;2.328;2023-11-18T14:43:19;11.70;99.90
70550;DHT22;58101;48.658;2.328;2023-11-18T14:45:45;11.60;99.90
70550;DHT22;58101;48.658;2.328;2023-11-18T14:48:11;11.70;99.90
70550;DHT22;58101;48.658;2.328;2023-11-18T14:50:36;11.70;99.90
70550;DHT22;58101;48.658;2.328;2023-11-18T14:53:03;11.70;99.90
70550;DHT22;58101;48.658;2.328;2023-11-18T14:55:29;11.70;99.90
70550;DHT22;58101;48.658;2.328;2023-11-18T14:57:55;11.80;99.90
70550;DHT22;58101;48.658;2.328;2023-11-18T15:00:21;11.70;99.90
70550;DHT22;58101;48.658;2.328;2023-11-18T15:02:54;11.70;99.90
70550;DHT22;58101;48.658;2.328;2023-11-18T15:05:21;11.80;99.90
70550;DHT22;58101;48.658;2.328;2023-11-18T15:07:48;11.70;99.90
70550;DHT22;58101;48.658;2.328;2023-11-18T15:10:18;11.70;99.90
70550;DHT22;58101;48.658;2.328;2023-11-18T15:12:47;11.70;99.90
70550;DHT22;58101;48.658;2.328;2023-11-18T15:15:13;11.70;99.90
70550;DHT22;58101;48.658;2.328;2023-11-18T15:17:46;11.70;99.90
70550;DHT22;58101;48.658;2.328;2023-11-18T15:20:14;11.70;99.90
70550;DHT22;58101;48.658;2.328;2023-11-18T15:22:40;11.70;99.90
70550;DHT22;58101;48.658;2.328;2023-11-18T15:25:08;11.70;99.90
70550;DHT22;58101;48.658;2.328;2023-11-18T15:27:41;11.70;99.90
70550;DHT22;58101;48.658;2.328;2023-11-18T15:30:08;11.80;99.90
70550;DHT22;58101;48.658;2.328;2023-11-18T15:32:38;11.80;99.90
70550;DHT22;58101;48.658;2.328;2023-11-18T15:35:04;11.80;99.90
70550;DHT22;58101;48.658;2.328;2023-11-18T15:37:37;11.80;99.90
70550;DHT22;58101;48.658;2.328;2023-11-18T15:40:05;11.80;99.90
70550;DHT22;58101;48.658;2.328;2023-11-18T15:42:41;11.80;99.90
70550;DHT22;58101;48.658;2.328;2023-11-18T15:45:20;12.00;99.90
70550;DHT22;58101;48.658;2.328;2023-11-18T15:47:46;11.90;99.90
70550;DHT22;58101;48.658;2.328;2023-11-18T15:50:14;12.00;99.90
70550;DHT22;58101;48.658;2.328;2023-11-18T15:52:50;11.90;99.90
70550;DHT22;58101;48.658;2.328;2023-11-18T15:55:19;12.10;99.90
70550;DHT22;58101;48.658;2.328;2023-11-18T15:57:48;11.90;99.90
70550;DHT22;58101;48.658;2.328;2023-11-18T16:00:19;11.90;99.90
70550;DHT22;58101;48.658;2.328;2023-11-18T16:02:54;12.00;99.90
70550;DHT22;58101;48.658;2.328;2023-11-18T16:05:25;11.90;99.90
70550;DHT22;58101;48.658;2.328;2023-11-18T16:07:52;12.00;99.90
70550;DHT22;58101;48.658;2.328;2023-11-18T16:10:20;12.00;99.90
70550;DHT22;58101;48.658;2.328;2023-11-18T16:12:53;12.00;99.90